Time;durP1;ratioP1;P1;durP2;ratioP2;P2;SDS_P1;SDS_P2;PMS_P1;PMS_P2;Temp;Humidity;BMP_temperature;BMP_pressure;BME280_temperature;BME280_humidity;BME280_pressure;Samples;Min_cycle;Max_cycle;Signal;HPM_P1;HPM_P2
2023/04/04 00:01:16;;;;;;;0.85;0.77;;;;;;;12.69;62.40;102923.00;5022055;28;20041;-47
2023/04/04 00:03:41;;;;;;;1.52;0.70;;;;;;;12.68;62.55;102927.50;5024711;28;20026;-47
2023/04/04 00:06:07;;;;;;;1.00;0.90;;;;;;;12.67;62.35;102928.41;5025446;28;20040;-45
2023/04/04 00:08:32;;;;;;;1.35;0.60;;;;;;;12.67;62.09;102930.22;5025551;28;20089;-46
2023/04/04 00:10:59;;;;;;;1.00;0.80;;;;;;;12.66;62.29;102926.69;5025875;28;20036;-49
2023/04/04 00:13:28;;;;;;;0.68;0.68;;;;;;;12.66;62.15;102933.81;5025266;28;20033;-49
2023/04/04 00:15:53;;;;;;;1.88;1.10;;;;;;;12.65;62.15;102937.41;5025380;28;20025;-49
2023/04/04 00:18:19;;;;;;;1.33;1.00;;;;;;;12.66;62.32;102936.47;5025260;28;20087;-45
2023/04/04 00:20:44;;;;;;;1.83;0.93;;;;;;;12.65;62.35;102937.41;5025208;28;20033;-47
2023/04/04 00:23:10;;;;;;;1.20;0.90;;;;;;;12.64;62.16;102933.00;5025177;28;20068;-47
2023/04/04 00:25:36;;;;;;;1.27;1.17;;;;;;;12.64;62.38;102924.97;5024952;28;20117;-45
2023/04/04 00:28:02;;;;;;;1.15;0.98;;;;;;;12.63;62.46;102924.13;5028618;28;20032;-47
2023/04/04 00:30:28;;;;;;;1.52;0.82;;;;;;;12.63;62.29;102932.13;5025014;28;20041;-48
2023/04/04 00:32:54;;;;;;;0.80;0.80;;;;;;;12.63;62.20;102933.94;5024983;28;20038;-47
2023/04/04 00:35:19;;;;;;;0.98;0.85;;;;;;;12.62;62.31;102926.84;5024813;28;20050;-49
2023/04/04 00:37:45;;;;;;;0.95;0.85;;;;;;;12.63;62.34;102939.28;5024966;28;20084;-49
2023/04/04 00:40:11;;;;;;;1.83;1.15;;;;;;;12.62;62.17;102932.19;5024680;28;20113;-46
2023/04/04 00:42:37;;;;;;;1.30;0.85;;;;;;;12.60;62.40;102937.59;5024151;28;20120;-47
2023/04/04 00:45:03;;;;;;;1.98;1.10;;;;;;;12.60;62.35;102937.59;5025556;28;20121;-47
2023/04/04 00:47:30;;;;;;;1.52;0.98;;;;;;;12.60;62.19;102939.41;5025514;28;20046;-47
2023/04/04 00:49:55;;;;;;;1.23;0.90;;;;;;;12.59;62.09;102941.19;5024701;28;20037;-47
2023/04/04 00:52:21;;;;;;;1.35;1.10;;;;;;;12.60;61.98;102934.06;5027720;28;20364;-46
2023/04/04 00:54:46;;;;;;;2.35;0.90;;;;;;;12.60;62.33;102939.41;5025393;28;20030;-45
2023/04/04 00:57:12;;;;;;;0.82;0.77;;;;;;;12.58;62.03;102936.78;5024544;28;20455;-47
2023/04/04 00:59:38;;;;;;;1.00;0.70;;;;;;;12.57;62.02;102937.72;5029139;28;20502;-48
2023/04/04 01:02:04;;;;;;;1.60;0.88;;;;;;;12.58;62.25;102938.59;5025097;28;20034;-46
2023/04/04 01:04:30;;;;;;;1.00;0.88;;;;;;;12.57;62.23;102936.88;5025228;28;20109;-45
2023/04/04 01:06:55;;;;;;;3.78;1.08;;;;;;;12.57;62.04;102940.41;5024348;28;20042;-47
2023/04/04 01:09:21;;;;;;;1.10;0.90;;;;;;;12.57;61.91;102931.50;5026381;28;20037;-45
2023/04/04 01:11:47;;;;;;;1.48;0.90;;;;;;;12.56;62.18;102932.44;5024910;28;20087;-45
2023/04/04 01:14:13;;;;;;;1.20;0.88;;;;;;;12.55;61.97;102930.72;5023565;28;20139;-49
2023/04/04 01:16:40;;;;;;;1.70;0.80;;;;;;;12.54;62.13;102921.78;5024288;28;20037;-46
2023/04/04 01:19:10;;;;;;;1.02;0.85;;;;;;;12.54;61.82;102918.25;5024148;28;20041;-47
2023/04/04 01:21:37;;;;;;;1.67;1.00;;;;;;;12.54;61.78;102913.78;5024165;28;20108;-47
2023/04/04 01:24:03;;;;;;;1.77;1.10;;;;;;;12.52;62.00;102905.81;5024393;28;20033;-47
2023/04/04 01:26:29;;;;;;;1.35;1.13;;;;;;;12.52;61.79;102905.81;5024259;28;20038;-47
2023/04/04 01:28:56;;;;;;;1.00;0.90;;;;;;;12.51;61.84;102908.56;5023908;28;20033;-45
2023/04/04 01:31:47;;;;;;;1.58;0.90;;;;;;;12.56;62.36;102909.25;5023450;28;20037;-46
2023/04/04 01:34:19;;;;;;;1.08;0.90;;;;;;;12.52;61.86;102904.97;5021277;28;20050;-47
2023/04/04 01:37:00;;;;;;;0.85;0.85;;;;;;;12.54;62.42;102910.25;5024235;28;20029;-49
2023/04/04 01:39:43;;;;;;;1.95;1.00;;;;;;;12.56;62.11;102903.03;5023077;28;20037;-46
2023/04/04 01:42:11;;;;;;;0.73;0.73;;;;;;;12.51;61.48;102904.09;5024136;28;20025;-46
2023/04/04 01:44:37;;;;;;;1.88;1.00;;;;;;;12.50;61.58;102897.00;5023627;28;20117;-49
2023/04/04 01:47:07;;;;;;;2.03;1.05;;;;;;;12.49;61.41;102899.75;5024242;28;20053;-46
2023/04/04 01:49:33;;;;;;;1.02;1.02;;;;;;;12.49;61.54;102900.63;5024413;28;20029;-47
2023/04/04 01:51:59;;;;;;;1.45;1.00;;;;;;;12.49;61.86;102897.09;5023581;28;20056;-46
2023/04/04 01:54:24;;;;;;;1.75;0.93;;;;;;;12.48;61.62;102890.84;5027228;28;20033;-47
2023/04/04 01:56:51;;;;;;;0.75;0.75;;;;;;;12.48;61.63;102898.84;5023680;28;20167;-47
2023/04/04 01:59:17;;;;;;;1.15;0.95;;;;;;;12.47;62.19;102894.47;5023314;28;20033;-46
2023/04/04 02:01:42;;;;;;;0.80;0.70;;;;;;;12.47;61.90;102894.47;5023234;28;20059;-51
2023/04/04 02:04:10;;;;;;;1.35;0.70;;;;;;;12.46;61.54;102884.69;5023246;28;20108;-46
2023/04/04 02:06:35;;;;;;;1.25;0.90;;;;;;;12.45;61.33;102893.66;5027000;28;20045;-46
2023/04/04 02:09:00;;;;;;;0.70;0.70;;;;;;;12.46;61.48;102891.84;5021855;28;20037;-47
2023/04/04 02:11:26;;;;;;;0.80;0.80;;;;;;;12.46;61.64;102897.19;5023110;28;20502;-47
2023/04/04 02:13:51;;;;;;;1.13;0.80;;;;;;;12.45;61.77;102899.00;5023134;28;20067;-48
2023/04/04 02:16:17;;;;;;;2.05;1.33;;;;;;;12.44;61.49;102891.91;5022161;28;20387;-47
2023/04/04 02:18:42;;;;;;;1.33;1.05;;;;;;;12.44;61.33;102904.41;5024226;28;20127;-47
2023/04/04 02:21:08;;;;;;;0.80;0.80;;;;;;;12.44;61.20;102901.72;5024679;28;20041;-46
2023/04/04 02:23:33;;;;;;;0.82;0.82;;;;;;;12.44;61.33;102899.06;5023545;28;20116;-46
2023/04/04 02:25:58;;;;;;;1.58;1.00;;;;;;;12.44;61.64;102907.94;5022130;28;20364;-47
2023/04/04 02:28:24;;;;;;;1.00;0.80;;;;;;;12.44;61.63;102917.75;5022793;28;20482;-48
2023/04/04 02:30:50;;;;;;;0.90;0.80;;;;;;;12.42;61.66;102915.13;5024686;28;20120;-45
2023/04/04 02:33:15;;;;;;;1.08;0.98;;;;;;;12.43;61.62;102921.34;5023789;28;20084;-47
2023/04/04 02:35:41;;;;;;;1.23;0.95;;;;;;;12.42;61.38;102924.97;5022681;28;20042;-45
2023/04/04 02:38:06;;;;;;;1.20;0.82;;;;;;;12.42;61.28;102923.16;5023228;28;20033;-48
2023/04/04 02:40:31;;;;;;;0.98;0.88;;;;;;;12.42;61.26;102919.63;5022811;28;20125;-47
2023/04/04 02:42:57;;;;;;;1.55;1.20;;;;;;;12.42;61.36;102911.59;5025221;28;20045;-45
2023/04/04 02:45:23;;;;;;;1.25;1.00;;;;;;;12.41;61.60;102918.72;5026288;28;20056;-47
2023/04/04 02:47:49;;;;;;;1.05;0.90;;;;;;;12.39;61.27;102914.38;5023014;28;20120;-46
2023/04/04 02:50:15;;;;;;;0.90;0.90;;;;;;;12.39;61.19;102899.22;5022510;28;20037;-47
2023/04/04 02:52:40;;;;;;;1.58;0.93;;;;;;;12.39;61.21;102899.22;5022445;28;20084;-47
2023/04/04 02:55:07;;;;;;;0.95;0.80;;;;;;;12.39;60.92;102898.34;5022544;28;20045;-46
2023/04/04 02:57:33;;;;;;;0.85;0.85;;;;;;;12.38;60.86;102908.19;5022698;28;20476;-49
2023/04/04 02:59:58;;;;;;;1.17;1.00;;;;;;;12.38;61.15;102901.97;5022708;28;20052;-48
2023/04/04 03:02:24;;;;;;;0.75;0.75;;;;;;;12.38;61.14;102899.28;5022434;28;20030;-47
2023/04/04 03:04:49;;;;;;;1.00;0.90;;;;;;;12.36;61.13;102896.69;5022617;28;20030;-46
2023/04/04 03:07:15;;;;;;;2.00;1.10;;;;;;;12.38;61.20;102907.31;5037724;28;20539;-48
2023/04/04 03:09:43;;;;;;;1.25;1.10;;;;;;;12.36;61.21;102902.03;5022287;28;20495;-46
2023/04/04 03:12:09;;;;;;;0.80;0.80;;;;;;;12.37;61.30;102900.22;5022766;28;20045;-48
2023/04/04 03:14:34;;;;;;;1.52;0.98;;;;;;;12.36;61.06;102899.34;5022961;28;20376;-46
2023/04/04 03:17:00;;;;;;;0.85;0.85;;;;;;;12.35;61.17;102902.94;5022317;28;20133;-46
2023/04/04 03:19:25;;;;;;;0.93;0.85;;;;;;;12.36;60.95;102911.84;5022518;28;20113;-47
2023/04/04 03:21:51;;;;;;;1.30;1.00;;;;;;;12.34;61.00;102906.56;5021227;28;20084;-47
2023/04/04 03:24:16;;;;;;;1.95;0.85;;;;;;;12.34;60.97;102903.88;5021960;28;20034;-46
2023/04/04 03:26:41;;;;;;;0.80;0.80;;;;;;;12.35;61.03;102905.59;5021085;28;20531;-49
2023/04/04 03:29:07;;;;;;;1.10;0.90;;;;;;;12.33;60.62;102904.78;5022714;28;20484;-46
2023/04/04 03:31:32;;;;;;;1.05;0.95;;;;;;;12.34;60.71;102906.56;5022151;28;20034;-45
2023/04/04 03:33:59;;;;;;;1.38;0.90;;;;;;;12.33;60.66;102894.13;5021889;28;20437;-46
2023/04/04 03:36:25;;;;;;;1.15;1.00;;;;;;;12.32;61.03;102892.38;5020294;28;20038;-47
2023/04/04 03:38:50;;;;;;;1.38;0.90;;;;;;;12.32;60.77;102887.03;5029167;28;20040;-46
2023/04/04 03:41:16;;;;;;;1.60;1.13;;;;;;;12.31;61.12;102886.16;5025939;28;20034;-46
2023/04/04 03:43:41;;;;;;;1.95;1.10;;;;;;;12.32;60.67;102887.91;5025781;28;20109;-45
2023/04/04 03:46:07;;;;;;;1.42;0.80;;;;;;;12.31;60.60;102887.97;5025225;28;20033;-46
2023/04/04 03:48:33;;;;;;;0.80;0.80;;;;;;;12.29;60.51;102877.34;5027649;28;20045;-47
2023/04/04 03:50:58;;;;;;;1.48;0.88;;;;;;;12.30;60.49;102872.88;5028324;28;20091;-45
2023/04/04 03:53:25;;;;;;;2.05;1.40;;;;;;;12.29;60.66;102865.78;5027796;28;20037;-46
2023/04/04 03:55:52;;;;;;;0.98;0.88;;;;;;;12.29;60.37;102863.13;5025533;28;20025;-46
2023/04/04 03:58:18;;;;;;;1.10;0.98;;;;;;;12.29;60.82;102865.78;5022519;28;20038;-47
2023/04/04 04:00:44;;;;;;;1.88;1.20;;;;;;;12.28;60.65;102869.38;5027832;28;20056;-47
2023/04/04 04:03:09;;;;;;;1.48;1.08;;;;;;;12.27;60.54;102878.34;5026603;28;20033;-49
2023/04/04 04:05:35;;;;;;;0.85;0.85;;;;;;;12.27;60.63;102873.00;5029054;28;20042;-49
2023/04/04 04:08:00;;;;;;;1.88;1.10;;;;;;;12.26;60.71;102882.81;5024428;28;20364;-45
2023/04/04 04:10:25;;;;;;;0.90;0.90;;;;;;;12.26;60.58;102877.47;5025359;28;20037;-47
2023/04/04 04:12:51;;;;;;;1.25;1.00;;;;;;;12.25;60.52;102881.06;5025470;28;20030;-45
2023/04/04 04:15:16;;;;;;;1.05;0.90;;;;;;;12.27;60.71;102881.00;5025355;28;20451;-49
2023/04/04 04:17:42;;;;;;;1.58;0.90;;;;;;;12.26;60.21;102865.88;5025746;28;20037;-48
2023/04/04 04:20:08;;;;;;;1.67;0.90;;;;;;;12.25;60.55;102877.53;5025836;28;20372;-47
2023/04/04 04:22:34;;;;;;;1.52;1.00;;;;;;;12.25;60.26;102869.50;5025360;28;20083;-46
2023/04/04 04:25:00;;;;;;;3.08;1.10;;;;;;;12.24;60.49;102875.75;5025271;28;20363;-46
2023/04/04 04:27:25;;;;;;;0.80;0.80;;;;;;;12.24;60.23;102870.44;5025360;28;20163;-48
2023/04/04 04:29:51;;;;;;;1.80;0.90;;;;;;;12.24;60.03;102867.75;5025315;28;20037;-50
2023/04/04 04:32:17;;;;;;;1.80;1.10;;;;;;;12.23;60.38;102858.00;5024982;28;20395;-51
2023/04/04 04:34:43;;;;;;;1.15;1.05;;;;;;;12.23;60.04;102872.22;5028547;28;20045;-47
2023/04/04 04:37:08;;;;;;;0.80;0.80;;;;;;;12.22;60.26;102880.28;5023124;28;20061;-48
2023/04/04 04:39:34;;;;;;;1.48;1.02;;;;;;;12.23;60.31;102874.03;5027346;28;20050;-50
2023/04/04 04:41:59;;;;;;;1.92;0.90;;;;;;;12.21;60.33;102870.56;5023218;28;20034;-48
2023/04/04 04:44:25;;;;;;;1.15;1.05;;;;;;;12.21;60.12;102870.56;5028490;28;20471;-48
2023/04/04 04:46:50;;;;;;;0.90;0.90;;;;;;;12.21;59.98;102868.75;5027154;28;20049;-47
2023/04/04 04:49:16;;;;;;;2.22;0.90;;;;;;;12.22;59.86;102877.63;5025223;28;20042;-46
2023/04/04 04:51:41;;;;;;;1.33;1.00;;;;;;;12.21;60.16;102886.59;5025393;28;20029;-50
2023/04/04 04:54:07;;;;;;;1.00;0.82;;;;;;;12.20;59.82;102887.50;5024560;28;20032;-47
2023/04/04 04:56:32;;;;;;;1.70;1.10;;;;;;;12.20;60.06;102890.16;5024812;28;21103;-48
2023/04/04 04:58:58;;;;;;;1.17;1.02;;;;;;;12.19;59.92;102891.97;5024487;28;20176;-47
2023/04/04 05:01:23;;;;;;;0.95;0.85;;;;;;;12.19;59.67;102897.31;5024509;28;20364;-47
2023/04/04 05:03:49;;;;;;;1.23;0.98;;;;;;;12.19;59.58;102899.13;5024704;28;20034;-49
2023/04/04 05:06:14;;;;;;;2.00;0.95;;;;;;;12.18;59.66;102898.22;5024434;28;20025;-47
2023/04/04 05:08:40;;;;;;;1.10;1.00;;;;;;;12.17;59.87;102904.53;5027907;28;20108;-47
2023/04/04 05:11:05;;;;;;;0.90;0.73;;;;;;;12.16;59.97;102901.91;5023406;28;20539;-49
2023/04/04 05:13:31;;;;;;;1.00;0.90;;;;;;;12.16;59.58;102902.75;5024064;28;20037;-47
2023/04/04 05:15:57;;;;;;;1.40;1.30;;;;;;;12.17;59.92;102906.31;5024651;28;20080;-48
2023/04/04 05:18:22;;;;;;;1.10;1.00;;;;;;;12.15;59.77;102905.47;5027214;28;20029;-49
2023/04/04 05:20:54;;;;;;;1.10;0.90;;;;;;;12.14;59.61;102901.94;5027417;28;20029;-46
2023/04/04 05:23:20;;;;;;;1.23;1.10;;;;;;;12.15;59.83;102900.16;5023719;28;20026;-45
2023/04/04 05:25:48;;;;;;;1.30;1.10;;;;;;;12.13;59.55;102898.41;5029600;28;20100;-47
2023/04/04 05:28:14;;;;;;;1.55;1.15;;;;;;;12.14;59.57;102901.94;5028638;28;20095;-49
2023/04/04 05:30:40;;;;;;;1.48;0.90;;;;;;;12.13;59.82;102903.75;5029521;28;20025;-49
2023/04/04 05:33:05;;;;;;;1.05;0.80;;;;;;;12.13;59.30;102901.09;5031271;28;20525;-48
2023/04/04 05:35:31;;;;;;;1.10;1.00;;;;;;;12.13;59.41;102906.44;5027465;28;20057;-50
2023/04/04 05:37:56;;;;;;;1.55;1.00;;;;;;;12.12;59.01;102898.47;5023698;28;20049;-46
2023/04/04 05:40:21;;;;;;;0.90;0.90;;;;;;;12.12;59.49;102907.34;5023612;28;20033;-46
2023/04/04 05:42:55;;;;;;;0.95;0.90;;;;;;;12.12;59.71;102906.47;5023842;28;20041;-47
2023/04/04 05:45:20;;;;;;;1.35;0.95;;;;;;;12.11;59.18;102910.97;5027657;28;20037;-48
2023/04/04 05:47:46;;;;;;;1.65;1.20;;;;;;;12.11;59.08;102916.31;5026940;28;20042;-48
2023/04/04 05:50:11;;;;;;;1.17;1.08;;;;;;;12.11;59.29;102915.44;5024070;28;20064;-48
2023/04/04 05:52:36;;;;;;;1.95;1.30;;;;;;;12.10;59.54;102913.69;5026722;28;20124;-47
2023/04/04 05:55:02;;;;;;;1.13;0.95;;;;;;;12.10;59.04;102919.88;5023297;28;20030;-50
2023/04/04 05:57:27;;;;;;;1.67;1.15;;;;;;;12.08;58.90;102921.75;5022787;28;20041;-49
2023/04/04 05:59:53;;;;;;;2.35;1.23;;;;;;;12.08;59.13;102915.53;5023343;28;20041;-48
2023/04/04 06:02:19;;;;;;;1.33;1.10;;;;;;;12.09;59.24;102917.28;5026509;28;20091;-50
2023/04/04 06:04:44;;;;;;;1.13;1.02;;;;;;;12.08;58.77;102916.41;5027304;28;20033;-50
2023/04/04 06:07:09;;;;;;;1.13;1.02;;;;;;;12.08;58.98;102916.41;5024476;28;20041;-50
2023/04/04 06:09:35;;;;;;;1.20;1.10;;;;;;;12.08;59.05;102918.22;5029787;28;20116;-49
2023/04/04 06:12:03;;;;;;;1.33;1.10;;;;;;;12.06;58.83;102918.25;5024055;28;20533;-47
2023/04/04 06:14:29;;;;;;;1.30;1.20;;;;;;;12.06;58.77;102918.25;5019012;28;20041;-49
2023/04/04 06:16:55;;;;;;;3.28;1.20;;;;;;;12.06;58.81;102922.75;5023198;28;20033;-50
2023/04/04 06:19:21;;;;;;;1.55;1.27;;;;;;;12.07;59.13;102924.47;5023060;28;20035;-49
2023/04/04 06:21:46;;;;;;;1.00;1.00;;;;;;;12.06;59.08;102923.59;5031014;28;20045;-47
2023/04/04 06:24:11;;;;;;;1.33;1.10;;;;;;;12.06;58.72;102917.41;5027631;28;20022;-47
2023/04/04 06:26:37;;;;;;;2.55;1.30;;;;;;;12.05;58.90;102916.53;5025794;28;20045;-48
2023/04/04 06:29:03;;;;;;;1.67;1.50;;;;;;;12.05;58.70;102926.31;5027470;28;20076;-47
2023/04/04 06:31:29;;;;;;;2.55;1.40;;;;;;;12.04;59.01;102930.81;5029758;28;20045;-49
2023/04/04 06:33:54;;;;;;;1.00;1.00;;;;;;;12.04;58.48;102936.13;5027438;28;20056;-46
2023/04/04 06:36:20;;;;;;;1.30;1.20;;;;;;;12.04;58.39;102936.13;5029040;28;20026;-48
2023/04/04 06:38:45;;;;;;;0.90;0.90;;;;;;;12.04;58.88;102936.13;5024857;28;20033;-49
2023/04/04 06:41:11;;;;;;;1.27;1.10;;;;;;;12.04;58.66;102929.94;5030362;28;20033;-45
2023/04/04 17:51:55;;;;;;;3.03;1.83;;;;;;;12.03;65.19;102517.03;5061828;27;20428;-47
2023/04/04 17:54:21;;;;;;;4.75;2.22;;;;;;;12.04;65.02;102513.44;5051323;28;20033;-46
2023/04/04 17:56:47;;;;;;;3.53;1.58;;;;;;;12.05;64.86;102513.38;5047075;28;20371;-49
2023/04/04 17:59:13;;;;;;;3.60;1.80;;;;;;;12.07;65.16;102513.28;5052891;28;20086;-49
2023/04/04 18:01:39;;;;;;;1.90;1.50;;;;;;;12.07;65.08;102519.53;5013636;28;20050;-46
2023/04/04 18:04:04;;;;;;;2.08;1.52;;;;;;;12.10;64.97;102511.34;5024914;28;20083;-48
2023/04/04 18:06:30;;;;;;;3.22;1.60;;;;;;;12.13;64.78;102513.91;5018354;28;20037;-49
2023/04/04 18:08:56;;;;;;;2.25;1.70;;;;;;;12.16;64.56;102517.38;5019467;28;20034;-50
2023/04/04 18:11:22;;;;;;;2.83;1.63;;;;;;;12.19;64.50;102507.44;5022359;28;20061;-48
2023/04/04 18:13:47;;;;;;;3.97;1.90;;;;;;;12.23;64.26;102516.19;5021171;28;20465;-51
2023/04/04 18:16:12;;;;;;;3.25;1.92;;;;;;;12.26;64.37;102502.66;5025771;28;20044;-50
2023/04/04 18:18:39;;;;;;;3.00;1.70;;;;;;;12.28;64.31;102504.34;5021732;28;20060;-48
2023/04/04 18:21:08;;;;;;;6.07;1.73;;;;;;;12.32;64.41;102503.28;5024654;28;20060;-51
2023/04/04 18:23:33;;;;;;;2.85;2.08;;;;;;;12.36;64.47;102497.81;5024197;28;20475;-48
2023/04/04 18:25:59;;;;;;;3.47;1.90;;;;;;;12.39;64.00;102498.50;5024835;28;20109;-48
2023/04/04 18:28:25;;;;;;;2.80;1.52;;;;;;;12.42;63.83;102502.88;5024219;28;20064;-47
2023/04/04 18:30:51;;;;;;;1.75;1.35;;;;;;;12.44;63.90;102501.84;5022904;28;20030;-49
2023/04/04 18:33:18;;;;;;;3.42;1.60;;;;;;;12.48;63.65;102511.47;5024624;28;20088;-52
2023/04/04 18:35:43;;;;;;;2.55;1.65;;;;;;;12.51;63.50;102497.97;5023098;28;20025;-50
2023/04/04 18:38:09;;;;;;;4.78;1.83;;;;;;;12.55;63.57;102506.72;5025946;28;20037;-49
2023/04/04 18:40:34;;;;;;;4.60;1.67;;;;;;;12.58;63.63;102508.38;5022688;28;20125;-48
2023/04/04 18:43:02;;;;;;;3.67;1.63;;;;;;;12.61;63.45;102509.09;5022497;28;20088;-51
2023/04/04 18:45:27;;;;;;;4.53;2.03;;;;;;;12.63;63.50;102506.38;5024098;28;20025;-51
2023/04/04 18:47:52;;;;;;;2.72;1.73;;;;;;;12.66;63.02;102516.91;5021182;28;20125;-51
2023/04/04 18:50:18;;;;;;;1.85;1.58;;;;;;;12.69;62.97;102516.75;5024390;28;20046;-51
2023/04/04 18:52:43;;;;;;;5.15;1.90;;;;;;;12.70;62.90;102519.38;5025674;28;20040;-51
2023/04/04 18:55:09;;;;;;;2.17;1.63;;;;;;;12.73;62.80;102522.84;5024602;28;20056;-48
2023/04/04 18:57:36;;;;;;;3.40;1.67;;;;;;;12.75;63.09;102521.81;5026796;28;20563;-51
2023/04/04 19:00:02;;;;;;;6.45;1.80;;;;;;;12.76;63.10;102522.72;5021821;28;20034;-49
2023/04/04 19:02:27;;;;;;;5.25;1.63;;;;;;;12.78;62.68;102520.84;5014814;28;20437;-48
2023/04/04 19:04:54;;;;;;;2.65;1.80;;;;;;;12.80;62.93;102518.94;5007421;28;20137;-51
2023/04/04 19:07:25;;;;;;;5.75;2.05;;;;;;;12.81;62.59;102524.22;5009746;28;20057;-50
2023/04/04 19:09:50;;;;;;;2.55;1.73;;;;;;;12.84;62.49;102518.72;5011159;28;20407;-50
2023/04/04 19:12:16;;;;;;;3.55;1.63;;;;;;;12.84;62.92;102518.72;5006561;28;20062;-51
2023/04/04 19:14:41;;;;;;;5.82;1.92;;;;;;;12.85;62.88;102523.16;5011977;28;20475;-49
2023/04/04 19:17:07;;;;;;;2.80;1.75;;;;;;;12.87;62.47;102526.63;5010290;28;20479;-50
2023/04/04 19:19:33;;;;;;;4.18;1.90;;;;;;;12.87;62.69;102526.63;5011085;28;20128;-47
2023/04/04 19:21:58;;;;;;;4.40;1.67;;;;;;;12.89;62.64;102529.22;5011044;28;20368;-48
2023/04/04 19:24:24;;;;;;;3.50;2.13;;;;;;;12.89;62.42;102524.72;5007854;28;20030;-50
2023/04/04 19:26:50;;;;;;;4.25;1.67;;;;;;;12.89;62.31;102522.06;5010649;28;20034;-50
2023/04/04 19:29:19;;;;;;;2.92;1.90;;;;;;;12.91;62.66;102525.53;5011588;28;20034;-50
2023/04/04 19:31:46;;;;;;;3.05;1.58;;;;;;;12.93;62.19;102528.13;5011828;28;20036;-48
2023/04/04 19:34:13;;;;;;;5.15;2.00;;;;;;;12.93;62.30;102528.13;5007357;28;20113;-52
2023/04/04 19:36:39;;;;;;;2.97;1.88;;;;;;;12.95;62.78;102533.41;5007088;28;20030;-49
2023/04/04 19:39:07;;;;;;;3.88;1.90;;;;;;;12.94;62.47;102534.34;5009834;28;20108;-47
2023/04/04 19:41:37;;;;;;;2.53;1.70;;;;;;;12.97;62.29;102536.88;5009989;28;20338;-48
2023/04/04 19:44:05;;;;;;;2.60;1.70;;;;;;;12.97;62.42;102536.88;5009599;28;20037;-49
2023/04/04 19:46:31;;;;;;;5.22;1.98;;;;;;;12.97;62.25;102532.41;5010970;28;20029;-48
2023/04/04 19:48:58;;;;;;;1.75;1.60;;;;;;;12.99;62.02;102540.34;5012020;28;20026;-49
2023/04/04 19:51:25;;;;;;;3.88;2.00;;;;;;;12.99;62.22;102530.50;5007571;28;20060;-50
2023/04/04 19:53:56;;;;;;;5.93;2.30;;;;;;;13.01;62.53;102531.31;5009651;28;20037;-50
2023/04/04 19:56:23;;;;;;;3.88;1.92;;;;;;;13.04;62.88;102528.50;5008862;28;20038;-51
2023/04/04 19:59:07;;;;;;;4.05;2.00;;;;;;;13.11;63.06;102534.41;5014081;28;20030;-52
2023/04/04 20:01:33;;;;;;;5.70;2.10;;;;;;;13.12;63.00;102533.47;5006618;28;20026;-51
2023/04/04 20:04:08;;;;;;;3.65;1.83;;;;;;;13.16;63.01;102527.03;5007657;28;20030;-47
2023/04/04 20:06:35;;;;;;;4.32;1.73;;;;;;;13.18;62.54;102525.16;5007696;28;20462;-50
2023/04/04 20:09:24;;;;;;;2.70;1.85;;;;;;;13.21;62.83;102535.72;5013309;28;20391;-49
2023/04/04 20:11:49;;;;;;;5.43;1.75;;;;;;;13.22;62.63;102537.44;5013266;28;20026;-55
2023/04/04 20:14:19;;;;;;;4.60;2.25;;;;;;;13.23;62.24;102525.81;5013782;28;20056;-52
2023/04/04 20:16:45;;;;;;;3.63;1.80;;;;;;;13.25;62.55;102520.34;4973424;28;20037;-48
2023/04/04 20:19:12;;;;;;;4.75;2.38;;;;;;;13.25;62.54;102521.25;5000028;28;20041;-50
2023/04/04 20:21:37;;;;;;;2.67;1.98;;;;;;;13.28;62.25;102514.88;4999067;28;20042;-49
2023/04/04 20:24:08;;;;;;;5.07;2.33;;;;;;;13.31;62.59;102514.78;5012574;28;20040;-51
2023/04/04 20:26:34;;;;;;;6.50;2.20;;;;;;;13.33;62.38;102517.34;5006316;28;20805;-51
2023/04/04 20:29:01;;;;;;;4.07;2.30;;;;;;;13.34;62.35;102514.59;5009386;28;20101;-49
2023/04/04 20:31:26;;;;;;;4.85;2.50;;;;;;;13.34;62.26;102514.59;5009307;28;20029;-51
2023/04/04 20:33:51;;;;;;;2.97;2.13;;;;;;;13.36;62.89;102515.38;5006920;28;20026;-51
2023/04/04 20:36:19;;;;;;;4.80;2.33;;;;;;;13.37;62.28;102510.94;5000450;28;20036;-51
2023/04/04 20:38:46;;;;;;;5.43;2.22;;;;;;;13.39;62.91;102514.41;5009697;28;20073;-49
2023/04/04 20:41:22;;;;;;;5.30;2.42;;;;;;;13.42;63.03;102520.47;5009494;28;20072;-47
2023/04/04 20:43:51;;;;;;;3.50;1.90;;;;;;;13.42;62.36;102512.44;4987129;28;20030;-53
2023/04/04 20:46:18;;;;;;;4.47;2.20;;;;;;;13.43;62.05;102515.97;5000442;28;20061;-56
2023/04/04 20:48:46;;;;;;;4.63;2.30;;;;;;;13.44;61.65;102517.69;4997134;28;20037;-56
2023/04/04 20:51:17;;;;;;;4.70;2.72;;;;;;;13.43;62.19;102511.47;5008922;28;20046;-55
2023/04/04 20:53:42;;;;;;;4.53;2.30;;;;;;;13.46;62.66;102510.44;5006533;28;20033;-55
2023/04/04 20:56:26;;;;;;;4.28;2.33;;;;;;;13.46;61.63;102518.47;5008495;28;20038;-55
2023/04/04 20:58:51;;;;;;;3.85;2.30;;;;;;;13.47;61.71;102514.88;5020022;28;20034;-54
2023/04/04 21:01:17;;;;;;;5.00;2.42;;;;;;;13.46;61.62;102507.78;5006415;28;20356;-55
2023/04/04 21:03:44;;;;;;;3.85;2.30;;;;;;;13.45;61.14;102512.28;5008471;28;20073;-55
2023/04/04 21:06:14;;;;;;;3.97;2.40;;;;;;;13.44;61.01;102518.56;5006431;28;20502;-55
2023/04/04 21:08:46;;;;;;;4.20;2.35;;;;;;;13.46;61.22;102515.81;5005665;28;20126;-54
2023/04/04 21:11:13;;;;;;;6.45;2.70;;;;;;;13.45;61.12;102511.41;5001782;28;20045;-55
2023/04/04 21:13:40;;;;;;;4.72;2.30;;;;;;;13.44;61.33;102518.56;5001891;28;20034;-55
2023/04/04 21:16:11;;;;;;;4.05;2.38;;;;;;;13.46;61.97;102510.44;5007936;28;20029;-52
2023/04/04 21:18:38;;;;;;;5.40;2.80;;;;;;;13.46;61.36;102510.44;4999103;28;20034;-50
2023/04/04 21:21:15;;;;;;;7.28;2.10;;;;;;;13.46;61.71;102502.44;5001261;28;20060;-52
2023/04/04 21:23:52;;;;;;;2.67;2.08;;;;;;;13.51;61.78;102512.91;5006247;28;20034;-51
2023/04/04 21:26:23;;;;;;;2.78;2.13;;;;;;;13.48;61.55;102513.94;5002936;28;20034;-52
2023/04/04 21:28:49;;;;;;;;;;;;;;;13.58;61.87;102509.84;5003487;28;20036;-51
2023/04/04 21:31:16;;;;;;;3.35;2.38;;;;;;;13.47;61.45;102514.88;5003535;28;19925;-50
2023/04/04 21:33:47;;;;;;;5.90;2.50;;;;;;;13.45;61.36;102522.13;5006583;28;20029;-52
2023/04/04 21:36:27;;;;;;;2.67;2.35;;;;;;;13.44;61.62;102507.88;5003494;28;20038;-52
2023/04/04 21:38:54;;;;;;;4.00;1.90;;;;;;;13.39;61.65;102512.56;5002998;28;20532;-52
2023/04/04 21:41:25;;;;;;;2.70;2.00;;;;;;;13.39;61.62;102509.91;5002785;28;20117;-52
2023/04/04 21:43:52;;;;;;;5.13;2.33;;;;;;;13.38;61.87;102515.31;5004843;28;20084;-51
2023/04/04 21:46:17;;;;;;;2.97;2.10;;;;;;;13.36;61.73;102517.22;5003278;28;20041;-52
2023/04/04 21:48:43;;;;;;;4.25;2.28;;;;;;;13.34;61.94;102511.06;5003644;28;20480;-52
2023/04/04 21:51:08;;;;;;;2.65;2.08;;;;;;;13.33;61.94;102498.63;5002649;28;20467;-52
2023/04/04 21:53:33;;;;;;;3.50;2.00;;;;;;;13.33;61.58;102495.94;5002940;28;20030;-52
2023/04/04 21:55:59;;;;;;;4.88;2.13;;;;;;;13.30;61.83;102497.84;5002852;28;20046;-52
2023/04/04 21:58:24;;;;;;;4.28;2.50;;;;;;;13.29;61.92;102501.44;5003539;28;20487;-51
2023/04/04 22:00:50;;;;;;;3.90;2.50;;;;;;;13.28;62.04;102497.00;5003057;28;20050;-52
2023/04/04 22:03:16;;;;;;;5.03;2.38;;;;;;;13.29;61.73;102500.56;5003327;28;20030;-52
2023/04/04 22:05:43;;;;;;;6.18;2.42;;;;;;;13.27;62.19;102495.28;5002797;28;20038;-52
2023/04/04 22:08:08;;;;;;;3.03;2.13;;;;;;;13.26;61.97;102485.53;5002941;28;20100;-52
2023/04/04 22:10:33;;;;;;;2.75;2.13;;;;;;;13.26;61.83;102482.84;5002448;28;20393;-50
2023/04/04 22:13:00;;;;;;;3.70;2.28;;;;;;;13.26;61.93;102485.53;5002717;28;20034;-50
2023/04/04 22:15:28;;;;;;;3.60;2.30;;;;;;;13.25;62.09;102477.56;5002852;28;20604;-52
2023/04/04 22:18:03;;;;;;;4.65;2.60;;;;;;;13.25;61.88;102475.78;5002515;28;20034;-52
2023/04/04 22:20:30;;;;;;;3.45;2.13;;;;;;;13.24;61.80;102470.50;5006151;28;20057;-51
2023/04/04 22:22:57;;;;;;;3.83;2.33;;;;;;;13.23;61.66;102469.63;5009104;28;20103;-52
2023/04/04 22:25:22;;;;;;;2.60;2.25;;;;;;;13.23;61.86;102469.63;5002361;28;20152;-49
2023/04/04 22:27:48;;;;;;;4.50;2.60;;;;;;;13.23;62.04;102466.06;5003419;28;20123;-51
2023/04/04 22:30:14;;;;;;;3.17;2.50;;;;;;;13.22;62.05;102467.91;5002846;28;20463;-50